Time;durP1;ratioP1;P1;durP2;ratioP2;P2;SDS_P1;SDS_P2;PMS_P1;PMS_P2;Temp;Humidity;BMP_temperature;BMP_pressure;BME280_temperature;BME280_humidity;BME280_pressure;Samples;Min_cycle;Max_cycle;Signal;HPM_P1;HPM_P2
2021/12/20 00:00:02;;;;;;;;;;;3.50;41.10;;;;;;5064259;28;20273;-68
2021/12/20 00:02:30;;;;;;;;;;;3.50;41.00;;;;;;5062219;28;20409;-69
2021/12/20 00:04:59;;;;;;;;;;;3.50;41.00;;;;;;5054048;28;19936;-69
2021/12/20 00:07:31;;;;;;;;;;;3.50;41.00;;;;;;5060425;28;19983;-69
2021/12/20 00:09:59;;;;;;;;;;;3.50;41.00;;;;;;5057799;28;19934;-69
2021/12/20 00:12:29;;;;;;;;;;;3.50;41.00;;;;;;5079670;28;20043;-68
2021/12/20 00:14:57;;;;;;;;;;;3.50;41.00;;;;;;5071502;28;19932;-67
2021/12/20 00:17:26;;;;;;;;;;;3.50;41.00;;;;;;5078814;28;19960;-68
2021/12/20 00:19:56;;;;;;;;;;;3.50;41.00;;;;;;5048308;28;20437;-68
2021/12/20 00:22:26;;;;;;;;;;;3.50;41.00;;;;;;5057540;28;19925;-69
2021/12/20 00:24:54;;;;;;;;;;;3.50;41.00;;;;;;5056173;28;19986;-68
2021/12/20 00:27:22;;;;;;;;;;;3.60;41.30;;;;;;5081226;28;19932;-68
2021/12/20 00:29:50;;;;;;;;;;;3.50;41.00;;;;;;5080883;28;19932;-69
2021/12/20 00:32:18;;;;;;;;;;;3.50;41.00;;;;;;5062370;28;19924;-68
2021/12/20 00:34:46;;;;;;;;;;;3.50;41.00;;;;;;5066190;28;19960;-68
2021/12/20 00:42:44;;;;;;;;;;;3.50;41.20;;;;;;5079518;28;19950;-68
2021/12/20 00:45:12;;;;;;;;;;;3.50;42.00;;;;;;5077814;28;20708;-68
2021/12/20 00:47:40;;;;;;;;;;;3.50;41.10;;;;;;5081698;28;20408;-68
2021/12/20 00:50:10;;;;;;;;;;;3.60;41.60;;;;;;5079001;28;19932;-68
2021/12/20 00:52:38;;;;;;;;;;;3.60;41.10;;;;;;5078209;28;20011;-68
2021/12/20 00:55:08;;;;;;;;;;;3.50;41.10;;;;;;5069536;28;19924;-68
2021/12/20 00:57:36;;;;;;;;;;;3.50;41.00;;;;;;5064780;28;20367;-68
2021/12/20 01:00:05;;;;;;;;;;;3.50;41.70;;;;;;5063692;28;19925;-68
2021/12/20 01:02:33;;;;;;;;;;;3.40;42.20;;;;;;5078677;28;19925;-68
2021/12/20 01:05:02;;;;;;;;;;;3.50;42.60;;;;;;5076142;28;19958;-68
2021/12/20 01:07:32;;;;;;;;;;;3.50;42.80;;;;;;5085037;28;19931;-68
2021/12/20 01:10:03;;;;;;;;;;;3.50;42.70;;;;;;5085453;28;20418;-69
2021/12/20 01:12:41;;;;;;;;;;;3.50;42.90;;;;;;5084471;28;20094;-68
2021/12/20 01:15:10;;;;;;;;;;;3.50;42.90;;;;;;5079650;28;19998;-68
2021/12/20 01:17:38;;;;;;;;;;;3.50;43.00;;;;;;5069778;28;19932;-68
2021/12/20 01:20:06;;;;;;;;;;;3.50;43.20;;;;;;5062344;28;19925;-69
2021/12/20 01:22:34;;;;;;;;;;;3.50;42.90;;;;;;5067194;28;19943;-69
2021/12/20 01:25:02;;;;;;;;;;;3.40;43.00;;;;;;5059598;28;20467;-68
2021/12/20 01:27:30;;;;;;;;;;;3.40;43.10;;;;;;5057163;28;20003;-68
2021/12/20 01:29:59;;;;;;;;;;;3.40;43.20;;;;;;5067091;28;19925;-68
2021/12/20 01:32:29;;;;;;;;;;;3.40;43.60;;;;;;5067541;28;20023;-69
2021/12/20 01:34:57;;;;;;;;;;;3.40;43.60;;;;;;5060854;28;19932;-70
2021/12/20 01:37:26;;;;;;;;;;;3.40;43.70;;;;;;5071351;28;19967;-68
2021/12/20 01:39:58;;;;;;;;;;;3.50;43.90;;;;;;5084579;28;19925;-68
2021/12/20 01:42:26;;;;;;;;;;;3.40;43.90;;;;;;5066569;28;20578;-68
2021/12/20 01:44:56;;;;;;;;;;;3.40;44.00;;;;;;5057202;28;20314;-68
2021/12/20 01:47:28;;;;;;;;;;;3.50;44.30;;;;;;5073283;28;20007;-69
2021/12/20 01:50:01;;;;;;;;;;;3.40;43.80;;;;;;5066214;28;19936;-69
2021/12/20 01:52:39;;;;;;;;;;;3.30;44.20;;;;;;5067813;28;20356;-69
2021/12/20 01:55:07;;;;;;;;;;;3.30;44.80;;;;;;5075678;28;19977;-69
2021/12/20 01:57:35;;;;;;;;;;;3.30;45.00;;;;;;5082815;28;19931;-68
2021/12/20 02:00:04;;;;;;;;;;;3.40;45.40;;;;;;5066003;28;19930;-68
2021/12/20 02:02:33;;;;;;;;;;;3.40;45.40;;;;;;5066814;28;20011;-69
2021/12/20 02:05:11;;;;;;;;;;;3.40;45.10;;;;;;5060006;28;19938;-69
2021/12/20 02:07:50;;;;;;;;;;;3.40;45.10;;;;;;5070456;28;19924;-69
2021/12/20 02:10:18;;;;;;;;;;;3.40;44.90;;;;;;5082911;28;19924;-68
2021/12/20 02:12:47;;;;;;;;;;;3.30;44.60;;;;;;5067352;28;20007;-68
2021/12/20 02:15:14;;;;;;;;;;;3.30;45.20;;;;;;5055680;28;19938;-68
2021/12/20 02:17:44;;;;;;;;;;;3.30;45.30;;;;;;5058004;28;20350;-68
2021/12/20 02:20:26;;;;;;;;;;;3.30;45.50;;;;;;5072076;28;19924;-68
2021/12/20 02:22:56;;;;;;;;;;;3.40;45.40;;;;;;5083057;28;19933;-68
2021/12/20 02:25:24;;;;;;;;;;;3.40;45.40;;;;;;5070107;28;19960;-67
2021/12/20 02:27:52;;;;;;;;;;;3.40;45.20;;;;;;5083907;28;19928;-69
2021/12/20 02:30:42;;;;;;;;;;;3.40;45.40;;;;;;5083221;28;19970;-69
2021/12/20 02:38:38;;;;;;;;;;;3.40;45.20;;;;;;5027867;28;20237;-68
2021/12/20 02:41:09;;;;;;;;;;;3.40;45.30;;;;;;5061502;28;19931;-69
2021/12/20 02:43:40;;;;;;;;;;;3.40;45.20;;;;;;5047615;28;19937;-69
2021/12/20 02:46:24;;;;;;;;;;;3.30;45.10;;;;;;5061377;28;20360;-69
2021/12/20 02:48:52;;;;;;;;;;;3.30;45.30;;;;;;5066638;28;19929;-70
2021/12/20 02:51:23;;;;;;;;;;;3.30;45.90;;;;;;5068944;28;19924;-69
2021/12/20 02:53:52;;;;;;;;;;;3.30;45.90;;;;;;5064042;28;19933;-68
2021/12/20 02:56:19;;;;;;;;;;;3.30;46.70;;;;;;5063650;28;19935;-68
2021/12/20 02:58:51;;;;;;;;;;;3.30;47.10;;;;;;5068549;28;20065;-69
2021/12/20 03:01:20;;;;;;;;;;;3.20;46.80;;;;;;5067379;28;20346;-69
2021/12/20 03:03:48;;;;;;;;;;;3.10;47.00;;;;;;5076777;28;19971;-68
2021/12/20 03:06:24;;;;;;;;;;;3.20;47.50;;;;;;5058607;28;19924;-69
2021/12/20 03:08:53;;;;;;;;;;;3.20;48.20;;;;;;5063135;28;20035;-69
2021/12/20 03:11:22;;;;;;;;;;;3.20;48.60;;;;;;5064531;28;20384;-69
2021/12/20 03:13:53;;;;;;;;;;;3.30;48.80;;;;;;5065479;28;20022;-69
2021/12/20 03:16:21;;;;;;;;;;;3.30;48.80;;;;;;5075038;28;19954;-69
2021/12/20 03:18:49;;;;;;;;;;;3.30;48.90;;;;;;5078337;28;20422;-69
2021/12/20 03:21:16;;;;;;;;;;;3.30;48.80;;;;;;5083097;28;20387;-69
2021/12/20 03:23:47;;;;;;;;;;;3.30;48.90;;;;;;5080286;28;19951;-69
2021/12/20 03:26:15;;;;;;;;;;;3.20;48.70;;;;;;5076422;28;19931;-69
2021/12/20 03:28:42;;;;;;;;;;;3.20;48.80;;;;;;5084409;28;19932;-69
2021/12/20 03:31:12;;;;;;;;;;;3.20;48.90;;;;;;5081311;28;20346;-69
2021/12/20 03:33:40;;;;;;;;;;;3.20;48.90;;;;;;5079520;28;19932;-69
2021/12/20 03:36:08;;;;;;;;;;;3.10;49.30;;;;;;5077409;28;19935;-69
2021/12/20 03:38:35;;;;;;;;;;;3.20;49.80;;;;;;5085818;28;19981;-69
2021/12/20 03:41:05;;;;;;;;;;;3.20;50.00;;;;;;5079191;28;19933;-69
2021/12/20 03:43:33;;;;;;;;;;;3.30;50.00;;;;;;5077094;28;19928;-69
2021/12/20 03:46:01;;;;;;;;;;;3.30;50.00;;;;;;5073687;28;19928;-68
2021/12/20 03:48:30;;;;;;;;;;;3.30;50.20;;;;;;5083090;28;20314;-69
2021/12/20 03:51:00;;;;;;;;;;;3.30;50.00;;;;;;5081501;28;19964;-69
2021/12/20 03:53:28;;;;;;;;;;;3.30;50.20;;;;;;5074643;28;19990;-69
2021/12/20 03:55:56;;;;;;;;;;;3.20;50.30;;;;;;5075283;28;19997;-69
2021/12/20 03:58:27;;;;;;;;;;;3.30;50.30;;;;;;5082852;28;19948;-69
2021/12/20 04:00:55;;;;;;;;;;;3.30;50.20;;;;;;5083268;28;19935;-69
2021/12/20 04:03:23;;;;;;;;;;;3.30;50.40;;;;;;5079549;28;20324;-69
2021/12/20 04:05:51;;;;;;;;;;;3.40;50.50;;;;;;5076260;28;19970;-69
2021/12/20 04:08:19;;;;;;;;;;;3.30;50.10;;;;;;5077277;28;20402;-69
2021/12/20 04:10:47;;;;;;;;;;;3.40;49.50;;;;;;5080590;28;20383;-69
2021/12/20 04:13:14;;;;;;;;;;;3.30;49.70;;;;;;5064260;28;19931;-69
2021/12/20 04:15:43;;;;;;;;;;;3.30;49.60;;;;;;5078568;28;20014;-69
2021/12/20 04:18:11;;;;;;;;;;;3.40;49.80;;;;;;5081419;28;19928;-67
2021/12/20 04:20:39;;;;;;;;;;;3.40;49.10;;;;;;5082711;28;19977;-68
2021/12/20 04:23:07;;;;;;;;;;;3.40;49.10;;;;;;5069686;28;19993;-68
2021/12/20 04:25:35;;;;;;;;;;;3.40;49.00;;;;;;5070993;28;19931;-69
2021/12/20 04:28:03;;;;;;;;;;;3.40;49.00;;;;;;5084074;28;19924;-68
2021/12/20 04:30:32;;;;;;;;;;;3.40;49.00;;;;;;5083254;28;20011;-68
2021/12/20 04:33:01;;;;;;;;;;;3.30;47.80;;;;;;5074672;28;19932;-68
2021/12/20 04:35:30;;;;;;;;;;;3.30;47.80;;;;;;5074762;28;19924;-67
2021/12/20 04:38:00;;;;;;;;;;;3.40;47.00;;;;;;5081720;28;20291;-68
2021/12/20 04:40:28;;;;;;;;;;;3.40;47.80;;;;;;5082195;28;19998;-68
2021/12/20 04:42:57;;;;;;;;;;;3.40;47.90;;;;;;5057709;28;20345;-68
2021/12/20 04:45:26;;;;;;;;;;;3.40;46.80;;;;;;5070949;28;20030;-68
2021/12/20 04:47:54;;;;;;;;;;;3.40;46.70;;;;;;5078790;28;19932;-68
2021/12/20 04:50:23;;;;;;;;;;;3.50;47.40;;;;;;5082813;28;20012;-68
2021/12/20 04:52:52;;;;;;;;;;;3.50;47.20;;;;;;5084622;28;19935;-68
2021/12/20 04:55:20;;;;;;;;;;;3.50;47.30;;;;;;5075084;28;20373;-69
2021/12/20 04:57:48;;;;;;;;;;;3.40;46.90;;;;;;5079599;28;20280;-68
2021/12/20 05:00:18;;;;;;;;;;;3.50;47.30;;;;;;5081449;28;19978;-69
2021/12/20 05:02:48;;;;;;;;;;;3.50;47.20;;;;;;5068675;28;20025;-69
2021/12/20 05:05:16;;;;;;;;;;;3.50;46.70;;;;;;5076323;28;20435;-68
2021/12/20 05:07:46;;;;;;;;;;;3.40;46.20;;;;;;5079934;28;19924;-68
2021/12/20 05:10:25;;;;;;;;;;;3.40;46.90;;;;;;5082899;28;19928;-68
2021/12/20 05:12:53;;;;;;;;;;;3.40;46.70;;;;;;5082383;28;19946;-68
2021/12/20 05:15:21;;;;;;;;;;;3.40;47.40;;;;;;5057881;28;20387;-69
2021/12/20 05:17:49;;;;;;;;;;;3.40;47.10;;;;;;5084382;28;19924;-69
2021/12/20 05:20:17;;;;;;;;;;;3.40;47.00;;;;;;5081037;28;19928;-69
2021/12/20 05:22:46;;;;;;;;;;;3.40;47.40;;;;;;5081127;28;19932;-69
2021/12/20 05:25:14;;;;;;;;;;;3.40;48.00;;;;;;5074143;28;19932;-69
2021/12/20 05:27:42;;;;;;;;;;;3.40;47.70;;;;;;5078970;28;19968;-68
2021/12/20 05:30:11;;;;;;;;;;;3.40;47.80;;;;;;5083374;28;20360;-68
2021/12/20 05:32:39;;;;;;;;;;;3.40;47.50;;;;;;5081128;28;19928;-68
2021/12/20 05:35:08;;;;;;;;;;;3.40;48.00;;;;;;5072271;28;19932;-71
2021/12/20 05:37:36;;;;;;;;;;;3.40;47.80;;;;;;5081829;28;19962;-68
2021/12/20 05:40:06;;;;;;;;;;;3.40;48.30;;;;;;5080854;28;20006;-68
2021/12/20 05:42:34;;;;;;;;;;;3.40;47.30;;;;;;5079401;28;19989;-68
2021/12/20 05:45:02;;;;;;;;;;;3.40;47.40;;;;;;5069329;28;20403;-68
2021/12/20 05:47:30;;;;;;;;;;;3.30;47.00;;;;;;5083279;28;20419;-68
2021/12/20 05:49:58;;;;;;;;;;;3.40;47.30;;;;;;5087273;28;20302;-68
2021/12/20 05:52:26;;;;;;;;;;;3.40;47.60;;;;;;5083724;28;20436;-68
2021/12/20 05:54:53;;;;;;;;;;;3.40;47.70;;;;;;5077892;28;20415;-68
2021/12/20 05:57:23;;;;;;;;;;;3.40;47.20;;;;;;5085357;28;19924;-68
2021/12/20 05:59:50;;;;;;;;;;;3.40;47.80;;;;;;5084080;28;19924;-68
2021/12/20 06:02:18;;;;;;;;;;;3.40;47.50;;;;;;5082390;28;19963;-69
2021/12/20 06:04:50;;;;;;;;;;;3.40;47.70;;;;;;5081125;28;20440;-69
2021/12/20 06:07:18;;;;;;;;;;;3.50;48.50;;;;;;5081184;28;19928;-69
2021/12/20 06:09:47;;;;;;;;;;;3.50;47.80;;;;;;5083559;28;20022;-69
2021/12/20 06:12:14;;;;;;;;;;;3.50;47.60;;;;;;5081888;28;20409;-68
2021/12/20 06:14:44;;;;;;;;;;;3.50;47.60;;;;;;5077407;28;20401;-69
2021/12/20 06:17:11;;;;;;;;;;;3.50;47.30;;;;;;5079983;28;20029;-69
2021/12/20 06:19:40;;;;;;;;;;;3.60;47.60;;;;;;5082588;28;19931;-68
2021/12/20 06:22:10;;;;;;;;;;;3.50;47.10;;;;;;5080722;28;19932;-68
2021/12/20 06:24:38;;;;;;;;;;;3.50;47.70;;;;;;5081750;28;20068;-69
2021/12/20 06:27:06;;;;;;;;;;;3.50;48.00;;;;;;5073450;28;20001;-68
2021/12/20 06:29:34;;;;;;;;;;;3.50;48.20;;;;;;5084788;28;20299;-68
2021/12/20 06:32:04;;;;;;;;;;;3.50;48.10;;;;;;5085654;28;19924;-69
2021/12/20 06:34:32;;;;;;;;;;;3.50;48.40;;;;;;5080053;28;20018;-69
2021/12/20 06:37:01;;;;;;;;;;;3.50;48.10;;;;;;5073765;28;20010;-69
2021/12/20 06:39:33;;;;;;;;;;;3.60;48.20;;;;;;5084915;28;19924;-69
2021/12/20 06:42:03;;;;;;;;;;;3.60;47.70;;;;;;5082439;28;19929;-69
2021/12/20 06:44:31;;;;;;;;;;;3.60;47.30;;;;;;5083936;28;20012;-69
2021/12/20 06:46:59;;;;;;;;;;;3.60;47.50;;;;;;5081296;28;19925;-69
2021/12/20 06:49:28;;;;;;;;;;;3.60;47.20;;;;;;5085265;28;19932;-69
2021/12/20 06:51:59;;;;;;;;;;;3.50;46.40;;;;;;5085503;28;19924;-69
2021/12/20 06:54:28;;;;;;;;;;;3.60;46.90;;;;;;5080823;28;19924;-69
2021/12/20 06:56:58;;;;;;;;;;;3.50;46.60;;;;;;5078872;28;19976;-69
2021/12/20 06:59:29;;;;;;;;;;;3.50;47.10;;;;;;5081820;28;19928;-69
2021/12/20 07:01:57;;;;;;;;;;;3.50;46.40;;;;;;5084561;28;20019;-68
2021/12/20 07:04:25;;;;;;;;;;;3.40;47.50;;;;;;5077840;28;19932;-68
2021/12/20 07:06:54;;;;;;;;;;;3.40;48.00;;;;;;5061221;28;19924;-70
2021/12/20 07:09:22;;;;;;;;;;;3.30;48.10;;;;;;5080552;28;19925;-69
2021/12/20 07:11:50;;;;;;;;;;;3.30;48.80;;;;;;5083382;28;19946;-69
2021/12/20 07:14:19;;;;;;;;;;;3.30;48.90;;;;;;5079898;28;19924;-68
2021/12/20 07:16:47;;;;;;;;;;;3.30;49.40;;;;;;5078384;28;19954;-67
2021/12/20 07:19:18;;;;;;;;;;;3.20;49.40;;;;;;5077310;28;19928;-69
2021/12/20 07:21:47;;;;;;;;;;;3.30;49.80;;;;;;5084506;28;19932;-69
2021/12/20 07:24:17;;;;;;;;;;;3.30;49.90;;;;;;5077905;28;19924;-69
2021/12/20 07:26:45;;;;;;;;;;;3.30;49.80;;;;;;5071380;28;20311;-69
2021/12/20 07:29:14;;;;;;;;;;;3.30;50.10;;;;;;5080101;28;19982;-68
2021/12/20 07:31:45;;;;;;;;;;;3.30;50.50;;;;;;5080663;28;19930;-69
2021/12/20 07:34:13;;;;;;;;;;;3.40;50.60;;;;;;5064316;28;19932;-68
2021/12/20 07:36:41;;;;;;;;;;;3.40;50.70;;;;;;5078137;28;20375;-67
2021/12/20 07:39:09;;;;;;;;;;;3.40;49.90;;;;;;5084954;28;20433;-68
2021/12/20 07:41:53;;;;;;;;;;;3.40;50.20;;;;;;5078447;28;19933;-69
2021/12/20 07:44:21;;;;;;;;;;;3.30;50.00;;;;;;5075796;28;19928;-69
2021/12/20 07:46:49;;;;;;;;;;;3.40;50.70;;;;;;5078232;28;19924;-68
2021/12/20 07:49:17;;;;;;;;;;;3.40;50.70;;;;;;5080801;28;20489;-68
2021/12/20 07:51:45;;;;;;;;;;;3.50;50.60;;;;;;5082082;28;20015;-68
2021/12/20 07:54:13;;;;;;;;;;;3.50;50.50;;;;;;5076301;28;19986;-68
2021/12/20 07:56:40;;;;;;;;;;;3.50;50.90;;;;;;5076107;28;19942;-69
2021/12/20 07:59:10;;;;;;;;;;;3.50;50.30;;;;;;5073704;28;20293;-68
2021/12/20 08:01:40;;;;;;;;;;;3.50;50.10;;;;;;5080552;28;20010;-69
2021/12/20 08:04:08;;;;;;;;;;;3.60;50.00;;;;;;5078253;28;19936;-69
2021/12/20 08:06:36;;;;;;;;;;;3.60;49.10;;;;;;5079730;28;19924;-69
2021/12/20 08:09:04;;;;;;;;;;;3.60;48.60;;;;;;5082154;28;19928;-69
2021/12/20 08:11:33;;;;;;;;;;;3.70;48.10;;;;;;5078926;28;20395;-68
2021/12/20 08:14:01;;;;;;;;;;;3.60;47.10;;;;;;5078101;28;19934;-68
2021/12/20 08:16:30;;;;;;;;;;;3.70;47.50;;;;;;5077606;28;19928;-68
2021/12/20 08:18:58;;;;;;;;;;;3.70;46.90;;;;;;5078970;28;21278;-69
2021/12/20 08:21:27;;;;;;;;;;;3.70;47.70;;;;;;5083147;28;19939;-67
2021/12/20 08:23:55;;;;;;;;;;;3.70;47.20;;;;;;5076486;28;20008;-69
2021/12/20 08:26:23;;;;;;;;;;;3.60;46.60;;;;;;5077711;28;19970;-68
2021/12/20 08:28:57;;;;;;;;;;;3.70;46.50;;;;;;5081530;28;20000;-68
2021/12/20 08:31:25;;;;;;;;;;;3.80;45.00;;;;;;5079424;28;19928;-69
2021/12/20 08:33:54;;;;;;;;;;;3.80;44.00;;;;;;5080593;28;19932;-70
2021/12/20 08:36:24;;;;;;;;;;;3.80;44.10;;;;;;5049622;28;19959;-69
2021/12/20 08:38:52;;;;;;;;;;;4.00;44.40;;;;;;5082115;28;19981;-69
2021/12/20 08:41:20;;;;;;;;;;;3.90;43.20;;;;;;5079711;28;19928;-69
2021/12/20 08:43:47;;;;;;;;;;;3.90;42.80;;;;;;5079075;28;20554;-68
2021/12/20 08:46:15;;;;;;;;;;;4.00;43.00;;;;;;5076044;28;20011;-69
2021/12/20 08:48:43;;;;;;;;;;;4.00;41.40;;;;;;5078424;28;20748;-69
2021/12/20 08:51:13;;;;;;;;;;;4.00;41.40;;;;;;5079980;28;19924;-68
2021/12/20 08:53:41;;;;;;;;;;;4.00;41.40;;;;;;5078227;28;19932;-68
2021/12/20 08:56:11;;;;;;;;;;;4.10;40.00;;;;;;5076093;28;20347;-69
2021/12/20 08:58:39;;;;;;;;;;;4.00;40.40;;;;;;5077800;28;19935;-69
2021/12/20 09:01:07;;;;;;;;;;;4.00;40.20;;;;;;5077514;28;19924;-69
2021/12/20 09:03:34;;;;;;;;;;;4.00;39.90;;;;;;5079481;28;19931;-68
2021/12/20 09:06:02;;;;;;;;;;;3.80;40.40;;;;;;5073877;28;19925;-67
2021/12/20 09:08:34;;;;;;;;;;;4.00;42.10;;;;;;5078985;28;20374;-68
2021/12/20 09:11:01;;;;;;;;;;;4.00;42.10;;;;;;5080989;28;19924;-68
2021/12/20 09:13:29;;;;;;;;;;;4.00;42.40;;;;;;5077092;28;19939;-68
2021/12/20 09:16:00;;;;;;;;;;;4.10;42.50;;;;;;5075663;28;20358;-69
2021/12/20 09:18:28;;;;;;;;;;;4.10;41.60;;;;;;5066451;28;19931;-69
2021/12/20 09:20:58;;;;;;;;;;;4.10;40.30;;;;;;5077933;28;19959;-69
2021/12/20 09:23:28;;;;;;;;;;;4.10;42.40;;;;;;5082399;28;19997;-68
2021/12/20 09:25:58;;;;;;;;;;;4.10;42.90;;;;;;5060950;28;19947;-68
2021/12/20 09:28:26;;;;;;;;;;;4.10;42.50;;;;;;5068678;28;20794;-69
2021/12/20 09:30:54;;;;;;;;;;;4.10;41.50;;;;;;5083895;28;19943;-68
2021/12/20 09:33:22;;;;;;;;;;;4.10;40.20;;;;;;5075811;28;19924;-68
2021/12/20 09:35:50;;;;;;;;;;;4.10;40.30;;;;;;5076730;28;19924;-68
2021/12/20 09:38:19;;;;;;;;;;;4.20;38.10;;;;;;5083010;28;19950;-69
2021/12/20 09:41:13;;;;;;;;;;;4.20;38.00;;;;;;5084730;28;20455;-70
2021/12/20 09:43:46;;;;;;;;;;;4.20;37.10;;;;;;5080055;28;19938;-67
2021/12/20 09:46:14;;;;;;;;;;;4.30;36.40;;;;;;5080638;28;19932;-68
2021/12/20 09:48:43;;;;;;;;;;;4.10;37.20;;;;;;5085246;28;20429;-69
2021/12/20 09:51:12;;;;;;;;;;;4.10;37.50;;;;;;5081353;28;19977;-68
2021/12/20 09:53:40;;;;;;;;;;;4.20;37.60;;;;;;5080950;28;19986;-68
2021/12/20 09:56:08;;;;;;;;;;;4.40;38.00;;;;;;5079780;28;19932;-69
2021/12/20 09:58:37;;;;;;;;;;;4.40;37.10;;;;;;5083655;28;20453;-69
2021/12/20 10:01:08;;;;;;;;;;;4.30;36.50;;;;;;5082394;28;19935;-69
2021/12/20 10:03:36;;;;;;;;;;;4.50;36.60;;;;;;5078976;28;21162;-70
2021/12/20 10:06:05;;;;;;;;;;;4.60;35.20;;;;;;5063181;28;20379;-68
2021/12/20 10:08:41;;;;;;;;;;;4.60;33.50;;;;;;5082466;28;19970;-69
2021/12/20 10:11:18;;;;;;;;;;;4.50;33.40;;;;;;5083948;28;19932;-69
2021/12/20 10:13:45;;;;;;;;;;;4.50;33.60;;;;;;5081365;28;19924;-69
2021/12/20 10:16:16;;;;;;;;;;;4.50;33.90;;;;;;5079112;28;19982;-69
2021/12/20 10:18:44;;;;;;;;;;;4.40;33.80;;;;;;5083744;28;20043;-69
2021/12/20 10:21:12;;;;;;;;;;;4.50;34.50;;;;;;5081776;28;19924;-69
2021/12/20 10:23:41;;;;;;;;;;;4.60;33.60;;;;;;5079329;28;19932;-69
2021/12/20 10:26:13;;;;;;;;;;;4.50;34.00;;;;;;5080073;28;19928;-69
2021/12/20 10:28:43;;;;;;;;;;;4.40;35.30;;;;;;5082729;28;19935;-68
2021/12/20 10:31:13;;;;;;;;;;;4.50;34.60;;;;;;5081283;28;19931;-69
2021/12/20 10:33:50;;;;;;;;;;;4.60;34.80;;;;;;5047814;28;20145;-69
2021/12/20 10:36:18;;;;;;;;;;;4.40;33.30;;;;;;5079859;28;19931;-69
2021/12/20 10:38:56;;;;;;;;;;;4.50;33.40;;;;;;5080854;28;19939;-68
2021/12/20 10:41:32;;;;;;;;;;;4.60;33.50;;;;;;5081257;28;20007;-69
2021/12/20 10:44:02;;;;;;;;;;;4.70;30.30;;;;;;5079203;28;20607;-69
2021/12/20 10:46:34;;;;;;;;;;;4.70;29.30;;;;;;5077446;28;19930;-69
2021/12/20 10:49:06;;;;;;;;;;;4.80;23.50;;;;;;5081193;28;19942;-69
2021/12/20 10:51:35;;;;;;;;;;;4.90;25.50;;;;;;5083163;28;20411;-68
2021/12/20 10:54:09;;;;;;;;;;;5.00;26.50;;;;;;5074799;28;20050;-70
2021/12/20 10:56:38;;;;;;;;;;;4.90;24.40;;;;;;5077092;28;20455;-69
2021/12/20 10:59:12;;;;;;;;;;;4.90;23.80;;;;;;5084357;28;19932;-69
2021/12/20 11:02:12;;;;;;;;;;;5.10;21.50;;;;;;5085950;28;19954;-70
2021/12/20 11:04:47;;;;;;;;;;;5.10;14.40;;;;;;5077719;28;19932;-68
2021/12/20 11:10:06;;;;;;;;;;;5.10;12.70;;;;;;5080138;28;19955;-70
2021/12/20 11:12:34;;;;;;;;;;;5.20;11.50;;;;;;5080050;28;20349;-68
2021/12/20 11:15:04;;;;;;;;;;;5.20;11.30;;;;;;5072664;28;20024;-70
2021/12/20 11:17:34;;;;;;;;;;;5.40;12.80;;;;;;5081206;28;19924;-69
2021/12/20 11:20:05;;;;;;;;;;;5.20;9.80;;;;;;5080797;28;20002;-69
2021/12/20 11:22:34;;;;;;;;;;;5.40;13.60;;;;;;5075733;28;19991;-68
2021/12/20 11:25:04;;;;;;;;;;;5.40;14.90;;;;;;5053914;28;20035;-69
2021/12/20 11:27:33;;;;;;;;;;;5.20;13.90;;;;;;5044157;28;19925;-69
2021/12/20 11:30:07;;;;;;;;;;;5.30;14.80;;;;;;5060211;28;19925;-69
2021/12/20 11:32:35;;;;;;;;;;;5.30;16.30;;;;;;5042380;28;19957;-68
2021/12/20 11:35:03;;;;;;;;;;;5.40;15.20;;;;;;5051969;28;20419;-68
2021/12/20 11:37:32;;;;;;;;;;;5.40;13.00;;;;;;5055838;28;19941;-68
2021/12/20 11:40:02;;;;;;;;;;;5.40;14.00;;;;;;5060128;28;19929;-69
2021/12/20 11:42:30;;;;;;;;;;;5.30;14.80;;;;;;5057208;28;20350;-68
2021/12/20 11:44:59;;;;;;;;;;;5.10;16.20;;;;;;5048136;28;20040;-69
2021/12/20 11:47:30;;;;;;;;;;;5.00;17.20;;;;;;5059933;28;19970;-69
2021/12/20 11:50:02;;;;;;;;;;;4.90;18.10;;;;;;5056569;28;20099;-69
2021/12/20 11:52:32;;;;;;;;;;;4.90;18.10;;;;;;5057805;28;20120;-69
2021/12/20 11:55:01;;;;;;;;;;;5.00;18.10;;;;;;5054594;28;19939;-68
2021/12/20 11:57:34;;;;;;;;;;;4.90;14.20;;;;;;5070890;28;19970;-69
2021/12/20 12:00:03;;;;;;;;;;;5.00;15.40;;;;;;5043315;28;20045;-68
2021/12/20 12:02:32;;;;;;;;;;;5.00;16.10;;;;;;5070727;28;19932;-68
2021/12/20 12:05:06;;;;;;;;;;;5.00;15.30;;;;;;5073888;28;19939;-68
2021/12/20 12:07:37;;;;;;;;;;;5.00;16.00;;;;;;5075231;28;19952;-69
2021/12/20 12:10:07;;;;;;;;;;;5.10;14.90;;;;;;5065177;28;20381;-69
2021/12/20 12:12:40;;;;;;;;;;;5.00;13.40;;;;;;5080730;28;20014;-69
2021/12/20 12:15:10;;;;;;;;;;;4.90;14.00;;;;;;5083116;28;21375;-68
2021/12/20 12:17:51;;;;;;;;;;;4.70;15.20;;;;;;5077355;28;19924;-67
2021/12/20 12:20:39;;;;;;;;;;;4.70;15.90;;;;;;5075134;28;20183;-68
2021/12/20 12:23:12;;;;;;;;;;;4.70;15.30;;;;;;5081306;28;20405;-68
2021/12/20 12:25:43;;;;;;;;;;;4.70;15.70;;;;;;5073140;28;20410;-67
2021/12/20 12:28:12;;;;;;;;;;;4.60;15.80;;;;;;5056125;28;20067;-68
2021/12/20 12:30:43;;;;;;;;;;;4.60;14.60;;;;;;5063536;28;19932;-67
2021/12/20 12:33:18;;;;;;;;;;;4.50;14.70;;;;;;5059248;28;19928;-67
2021/12/20 12:35:51;;;;;;;;;;;4.50;14.70;;;;;;5069029;28;20051;-69
2021/12/20 12:38:21;;;;;;;;;;;4.40;14.60;;;;;;5083771;28;19982;-67
2021/12/20 12:40:51;;;;;;;;;;;4.30;14.00;;;;;;5073830;28;20299;-69
2021/12/20 12:43:21;;;;;;;;;;;4.40;14.60;;;;;;5058448;28;19994;-69
2021/12/20 12:45:50;;;;;;;;;;;4.30;14.30;;;;;;5057923;28;20028;-69
2021/12/20 12:48:35;;;;;;;;;;;4.30;14.10;;;;;;5073646;28;19924;-68
2021/12/20 12:51:07;;;;;;;;;;;4.30;13.60;;;;;;5054516;28;19928;-67
2021/12/20 12:53:40;;;;;;;;;;;4.30;14.60;;;;;;5051527;28;19940;-69
2021/12/20 12:56:27;;;;;;;;;;;4.30;14.90;;;;;;5049224;28;19977;-68
2021/12/20 12:59:14;;;;;;;;;;;4.40;14.10;;;;;;5057996;28;19935;-69
2021/12/20 13:01:48;;;;;;;;;;;4.40;14.40;;;;;;5058241;28;20038;-68
2021/12/20 13:04:16;;;;;;;;;;;4.50;12.60;;;;;;5064435;28;19959;-67
2021/12/20 13:06:44;;;;;;;;;;;4.50;11.60;;;;;;5055203;28;19969;-69
2021/12/20 13:09:14;;;;;;;;;;;4.60;11.30;;;;;;5056526;28;19959;-69
2021/12/20 13:11:41;;;;;;;;;;;4.60;11.00;;;;;;5057303;28;20455;-69
2021/12/20 13:14:14;;;;;;;;;;;4.70;8.80;;;;;;5047890;28;20264;-68
2021/12/20 13:16:51;;;;;;;;;;;4.80;8.80;;;;;;5057874;28;19939;-68
2021/12/20 13:19:29;;;;;;;;;;;4.90;8.90;;;;;;5072627;28;19969;-69
2021/12/20 13:22:00;;;;;;;;;;;4.90;5.80;;;;;;5067620;28;19939;-68
2021/12/20 13:24:30;;;;;;;;;;;5.00;5.40;;;;;;5071173;28;19928;-69
2021/12/20 13:27:03;;;;;;;;;;;5.00;5.30;;;;;;5071525;28;19990;-68
2021/12/20 13:29:32;;;;;;;;;;;5.00;4.90;;;;;;5071509;28;19928;-68
2021/12/20 13:32:06;;;;;;;;;;;5.10;4.60;;;;;;5063297;28;20573;-68
2021/12/20 13:34:34;;;;;;;;;;;5.00;4.80;;;;;;5051183;28;19934;-68
2021/12/20 13:37:04;;;;;;;;;;;5.10;4.30;;;;;;5050060;28;20299;-68
2021/12/20 13:39:34;;;;;;;;;;;5.10;4.50;;;;;;5058511;28;19932;-69
2021/12/20 13:42:05;;;;;;;;;;;5.20;3.20;;;;;;5055468;28;19986;-69
2021/12/20 13:44:35;;;;;;;;;;;5.20;2.80;;;;;;5050287;28;19931;-68
2021/12/20 13:47:05;;;;;;;;;;;5.20;2.10;;;;;;5046163;28;20020;-68
2021/12/20 13:49:35;;;;;;;;;;;5.20;1.90;;;;;;5050569;28;19929;-68
2021/12/20 13:52:04;;;;;;;;;;;5.20;1.80;;;;;;5050520;28;19968;-69
2021/12/20 13:54:33;;;;;;;;;;;5.30;1.90;;;;;;5072006;28;20315;-70
2021/12/20 13:57:04;;;;;;;;;;;5.30;2.70;;;;;;5068964;28;19955;-67
2021/12/20 13:59:33;;;;;;;;;;;5.30;2.90;;;;;;5065569;28;20015;-68
2021/12/20 14:02:02;;;;;;;;;;;5.20;1.00;;;;;;5057682;28;19950;-69
2021/12/20 14:04:35;;;;;;;;;;;5.20;1.70;;;;;;5051745;28;20047;-69
2021/12/20 14:07:04;;;;;;;;;;;5.20;1.10;;;;;;5054435;28;19971;-68
2021/12/20 14:09:37;;;;;;;;;;;5.20;1.40;;;;;;5055994;28;19935;-68
2021/12/20 14:12:11;;;;;;;;;;;5.30;1.00;;;;;;5076901;28;20015;-67
2021/12/20 14:14:54;;;;;;;;;;;5.30;1.00;;;;;;5065468;28;20022;-67
2021/12/20 14:17:21;;;;;;;;;;;5.40;1.00;;;;;;5058159;28;19947;-68
2021/12/20 14:19:56;;;;;;;;;;;5.40;1.00;;;;;;5058532;28;20116;-69
2021/12/20 14:22:25;;;;;;;;;;;5.40;1.00;;;;;;5055194;28;19935;-67
2021/12/20 14:25:00;;;;;;;;;;;5.40;1.00;;;;;;5053045;28;19932;-68
2021/12/20 14:27:30;;;;;;;;;;;5.40;1.00;;;;;;5055705;28;19928;-69
2021/12/20 14:30:02;;;;;;;;;;;5.30;1.00;;;;;;5048042;28;19925;-67
2021/12/20 14:32:36;;;;;;;;;;;5.20;1.00;;;;;;5053042;28;19928;-68
2021/12/20 14:35:22;;;;;;;;;;;5.20;1.00;;;;;;5034875;28;19932;-68
2021/12/20 14:37:50;;;;;;;;;;;5.10;1.00;;;;;;5072057;28;19966;-68
2021/12/20 14:40:33;;;;;;;;;;;5.10;1.00;;;;;;5060101;28;20028;-68
2021/12/20 14:43:07;;;;;;;;;;;5.00;1.00;;;;;;5057127;28;20015;-68
2021/12/20 14:45:35;;;;;;;;;;;4.90;1.00;;;;;;5052207;28;19928;-68
2021/12/20 14:48:16;;;;;;;;;;;4.90;1.00;;;;;;5055561;28;20308;-68
2021/12/20 14:50:46;;;;;;;;;;;4.80;1.00;;;;;;5055256;28;19932;-68
2021/12/20 14:53:14;;;;;;;;;;;4.70;1.00;;;;;;5052922;28;20010;-68
2021/12/20 14:55:42;;;;;;;;;;;4.60;1.00;;;;;;5029837;28;20019;-68
2021/12/20 14:58:11;;;;;;;;;;;4.60;1.00;;;;;;5054427;28;19929;-68
2021/12/20 15:00:40;;;;;;;;;;;4.50;1.00;;;;;;5059462;28;20364;-67